Time;durP1;ratioP1;P1;durP2;ratioP2;P2;SDS_P1;SDS_P2;PMS_P1;PMS_P2;Temp;Humidity;BMP_temperature;BMP_pressure;BME280_temperature;BME280_humidity;BME280_pressure;Samples;Min_cycle;Max_cycle;Signal;HPM_P1;HPM_P2
2023/01/11 00:01:51;;;;;;;2.47;1.08;;;8.30;99.10;;;;;;4950737;29;20228;-78
2023/01/11 00:04:18;;;;;;;1.33;1.10;;;8.20;99.00;;;;;;4932217;29;20696;-79
2023/01/11 00:06:44;;;;;;;1.55;0.85;;;8.30;99.30;;;;;;4950728;29;20193;-78
2023/01/11 00:09:09;;;;;;;1.75;1.20;;;8.40;99.20;;;;;;4948069;28;20215;-78
2023/01/11 00:11:35;;;;;;;1.83;1.00;;;8.40;99.10;;;;;;4950813;29;20225;-78
2023/01/11 00:14:00;;;;;;;3.73;1.00;;;8.90;99.40;;;;;;4949810;28;20216;-78
2023/01/11 00:16:26;;;;;;;1.27;0.97;;;8.80;99.50;;;;;;4932123;29;20182;-78
2023/01/11 00:18:51;;;;;;;2.93;1.00;;;8.40;99.40;;;;;;4933508;29;20233;-78
2023/01/11 00:21:17;;;;;;;1.20;1.00;;;8.30;99.30;;;;;;4950326;29;20207;-78
2023/01/11 00:23:43;;;;;;;1.30;0.90;;;8.80;99.40;;;;;;4947692;28;20205;-78
2023/01/11 00:26:12;;;;;;;2.40;1.00;;;8.20;99.40;;;;;;4932932;29;20188;-79
2023/01/11 00:28:38;;;;;;;1.63;0.85;;;8.40;99.60;;;;;;4950803;29;20188;-78
2023/01/11 00:31:03;;;;;;;1.07;0.80;;;8.20;99.70;;;;;;4952273;28;20247;-79
2023/01/11 00:33:29;;;;;;;1.60;0.80;;;8.40;99.90;;;;;;4949375;29;20491;-78
2023/01/11 00:35:55;;;;;;;1.80;0.87;;;8.90;99.90;;;;;;4949605;29;20462;-79
2023/01/11 00:49:20;;;;;;;1.33;0.90;;;8.10;99.90;;;;;;4947294;29;20267;-78
2023/01/11 00:51:45;;;;;;;1.40;0.90;;;8.00;99.90;;;;;;4950556;28;20657;-78
2023/01/11 00:54:11;;;;;;;1.10;0.97;;;8.60;99.90;;;;;;4949745;29;20469;-79
2023/01/11 00:56:36;;;;;;;1.47;1.00;;;9.00;99.90;;;;;;4952942;29;20713;-79
2023/01/11 00:59:03;;;;;;;1.50;0.80;;;8.60;99.90;;;;;;4953641;29;20200;-78
2023/01/11 01:01:29;;;;;;;1.20;0.70;;;8.70;99.90;;;;;;4948594;28;20181;-78
2023/01/11 01:03:55;;;;;;;1.77;0.88;;;8.50;99.90;;;;;;4936144;29;20801;-79
2023/01/11 01:06:20;;;;;;;1.00;0.77;;;8.90;99.90;;;;;;4944465;29;20284;-78
2023/01/11 01:08:46;;;;;;;1.07;0.97;;;9.20;99.90;;;;;;4951754;29;20188;-79
2023/01/11 01:11:11;;;;;;;1.90;1.00;;;8.70;99.90;;;;;;4953366;29;20197;-79
2023/01/11 01:16:21;;;;;;;0.77;0.70;;;9.10;99.90;;;;;;4951666;29;20200;-79
2023/01/11 01:18:46;;;;;;;1.80;0.80;;;8.80;99.90;;;;;;4953250;29;20189;-78
2023/01/11 01:21:12;;;;;;;1.20;1.00;;;9.10;99.90;;;;;;4953242;29;20731;-79
2023/01/11 01:23:37;;;;;;;1.63;1.00;;;8.80;99.90;;;;;;4945814;29;20217;-79
2023/01/11 01:26:04;;;;;;;1.67;0.90;;;9.10;99.90;;;;;;4950353;29;20190;-79
2023/01/11 01:28:29;;;;;;;1.00;0.80;;;8.40;99.90;;;;;;4935934;29;20233;-79
2023/01/11 01:30:55;;;;;;;3.17;0.87;;;8.70;99.90;;;;;;4926979;28;20237;-81
2023/01/11 01:33:21;;;;;;;0.97;0.87;;;9.10;99.90;;;;;;4937210;29;20216;-79
2023/01/11 01:35:47;;;;;;;1.00;0.77;;;9.20;99.90;;;;;;4936529;29;20181;-81
2023/01/11 01:38:13;;;;;;;3.23;1.00;;;8.80;99.90;;;;;;4936873;29;20549;-80
2023/01/11 01:40:43;;;;;;;2.03;0.70;;;8.70;99.90;;;;;;4951632;28;20193;-80
2023/01/11 01:43:14;;;;;;;1.08;0.82;;;8.70;99.90;;;;;;4936842;29;20209;-80
2023/01/11 01:45:40;;;;;;;1.40;0.80;;;9.20;99.90;;;;;;4953212;28;20449;-81
2023/01/11 01:48:09;;;;;;;1.77;0.80;;;8.60;99.90;;;;;;4953131;29;20255;-81
2023/01/11 01:50:47;;;;;;;2.92;0.90;;;8.70;99.90;;;;;;4951501;28;20362;-80
2023/01/11 01:53:35;;;;;;;1.05;0.70;;;8.10;99.90;;;;;;4952572;28;20313;-79
2023/01/11 01:56:05;;;;;;;2.10;0.70;;;8.60;99.90;;;;;;4954141;29;20542;-80
2023/01/11 01:58:39;;;;;;;3.53;0.90;;;8.60;99.90;;;;;;4933164;29;20192;-81
2023/01/11 02:03:51;;;;;;;2.00;0.75;;;8.60;99.90;;;;;;4951892;28;20232;-80
2023/01/11 02:06:18;;;;;;;0.93;0.80;;;8.70;99.90;;;;;;4952487;29;20200;-82
2023/01/11 02:08:48;;;;;;;1.23;0.60;;;9.10;99.90;;;;;;4951532;29;20189;-78
2023/01/11 02:11:31;;;;;;;0.98;0.60;;;8.60;99.90;;;;;;4946773;28;20193;-78
2023/01/11 02:14:07;;;;;;;0.95;0.60;;;8.00;99.90;;;;;;4952191;28;20212;-78
2023/01/11 02:16:33;;;;;;;0.70;0.60;;;8.20;99.90;;;;;;4950826;28;20217;-78
2023/01/11 02:18:59;;;;;;;1.10;0.80;;;8.30;99.90;;;;;;4951290;29;20590;-78
2023/01/11 02:21:37;;;;;;;0.80;0.80;;;8.10;99.90;;;;;;4950469;29;20187;-78
2023/01/11 02:24:21;;;;;;;0.90;0.60;;;8.80;99.90;;;;;;4949570;28;20287;-78
2023/01/11 02:26:49;;;;;;;1.38;0.80;;;9.10;99.90;;;;;;4949150;28;20193;-78
2023/01/11 02:29:22;;;;;;;0.82;0.70;;;9.10;99.90;;;;;;4952903;28;20209;-78
2023/01/11 02:31:51;;;;;;;2.05;0.70;;;8.90;99.90;;;;;;4950427;28;20181;-78
2023/01/11 02:34:25;;;;;;;1.40;1.00;;;8.40;99.90;;;;;;4937884;28;20224;-79
2023/01/11 02:37:28;;;;;;;0.68;0.60;;;9.40;99.90;;;;;;4951059;29;20724;-78
2023/01/11 02:40:29;;;;;;;0.85;0.60;;;9.10;99.90;;;;;;4943633;28;20216;-78
2023/01/11 02:46:15;;;;;;;2.65;0.68;;;8.90;99.90;;;;;;4947385;29;20204;-78
2023/01/11 02:48:51;;;;;;;0.75;0.60;;;8.60;99.90;;;;;;4951899;28;20191;-78
2023/01/11 02:51:26;;;;;;;1.00;0.75;;;8.30;99.90;;;;;;4951550;29;20197;-78
2023/01/11 02:54:00;;;;;;;1.15;0.70;;;8.90;99.90;;;;;;4942173;29;20736;-78
2023/01/11 02:56:29;;;;;;;1.52;0.75;;;8.60;99.90;;;;;;4950975;29;20190;-78
2023/01/11 02:58:56;;;;;;;1.02;0.60;;;8.40;99.90;;;;;;4934169;29;20593;-78
2023/01/11 03:01:24;;;;;;;3.60;0.80;;;9.00;99.90;;;;;;4932455;29;20189;-78
2023/01/11 03:03:50;;;;;;;1.17;0.80;;;9.50;99.90;;;;;;4932785;29;20232;-78
2023/01/11 03:06:19;;;;;;;0.90;0.80;;;8.70;99.90;;;;;;4950894;28;20198;-78
2023/01/11 03:09:23;;;;;;;1.20;0.57;;;8.90;99.90;;;;;;4933417;28;20193;-77
2023/01/11 03:15:44;;;;;;;0.85;0.63;;;9.20;99.90;;;;;;4949204;28;20192;-78
2023/01/11 03:18:38;;;;;;;1.70;0.70;;;9.40;99.90;;;;;;4933663;29;20659;-78
2023/01/11 03:21:25;;;;;;;1.15;0.50;;;9.90;99.90;;;;;;4933510;29;20189;-79
2023/01/11 03:24:06;;;;;;;1.35;0.70;;;9.50;99.90;;;;;;4930426;29;20241;-78
2023/01/11 03:26:48;;;;;;;0.80;0.70;;;9.40;99.90;;;;;;4933240;29;20228;-78
2023/01/11 03:29:49;;;;;;;0.80;0.60;;;9.40;99.90;;;;;;4934105;28;20654;-77
2023/01/11 03:32:44;;;;;;;0.70;0.60;;;9.10;99.90;;;;;;4873748;29;20197;-77
2023/01/11 03:35:20;;;;;;;0.85;0.60;;;9.40;99.90;;;;;;4936138;29;20189;-78
2023/01/11 03:38:00;;;;;;;0.80;0.70;;;9.50;99.90;;;;;;4931163;29;20268;-78
2023/01/11 03:40:33;;;;;;;2.17;0.60;;;9.80;99.90;;;;;;4949752;28;20217;-78
2023/01/11 03:43:09;;;;;;;1.60;0.70;;;9.60;99.90;;;;;;4933896;29;20287;-78
2023/01/11 03:45:46;;;;;;;0.60;0.60;;;9.80;99.90;;;;;;4933596;29;20220;-78
2023/01/11 03:48:16;;;;;;;0.77;0.60;;;9.60;99.90;;;;;;4930776;29;20682;-79
2023/01/11 03:50:44;;;;;;;0.70;0.70;;;9.50;99.90;;;;;;4934209;29;20185;-78
2023/01/11 03:53:11;;;;;;;0.70;0.50;;;9.60;99.90;;;;;;4949503;28;20220;-77
2023/01/11 03:55:40;;;;;;;0.60;0.50;;;9.60;99.90;;;;;;4933629;29;20182;-78
2023/01/11 03:58:07;;;;;;;0.75;0.55;;;9.50;99.90;;;;;;4932007;29;20201;-77
2023/01/11 04:00:35;;;;;;;0.70;0.50;;;9.40;99.90;;;;;;4933488;29;20221;-78
2023/01/11 04:03:01;;;;;;;0.60;0.50;;;9.50;99.90;;;;;;4932528;29;20426;-77
2023/01/11 04:05:27;;;;;;;0.60;0.43;;;9.50;99.90;;;;;;4933017;29;20189;-78
2023/01/11 04:07:53;;;;;;;0.70;0.57;;;8.90;99.90;;;;;;4933276;29;20196;-78
2023/01/11 04:10:19;;;;;;;0.70;0.65;;;9.10;99.90;;;;;;4946737;28;20196;-78
2023/01/11 04:12:48;;;;;;;0.70;0.60;;;9.50;99.90;;;;;;4933481;29;20208;-78
2023/01/11 04:15:14;;;;;;;0.85;0.70;;;9.40;99.90;;;;;;4945435;29;20260;-78
2023/01/11 04:17:40;;;;;;;0.70;0.70;;;9.50;99.90;;;;;;4932568;29;20193;-78
2023/01/11 04:20:11;;;;;;;0.60;0.50;;;9.30;99.90;;;;;;4930705;29;20559;-78
2023/01/11 04:22:36;;;;;;;0.60;0.50;;;9.90;99.90;;;;;;4933019;29;20186;-78
2023/01/11 04:25:02;;;;;;;1.53;0.60;;;9.30;99.90;;;;;;4932306;29;20681;-77
2023/01/11 04:27:27;;;;;;;0.80;0.60;;;9.60;99.90;;;;;;4948886;29;20198;-79
2023/01/11 04:29:53;;;;;;;1.40;0.90;;;9.80;99.90;;;;;;4931926;29;20235;-79
2023/01/11 04:32:18;;;;;;;0.70;0.60;;;9.40;99.90;;;;;;4929232;29;20186;-78
2023/01/11 04:34:44;;;;;;;1.03;0.93;;;10.00;99.90;;;;;;4935661;29;20236;-78
2023/01/11 04:37:10;;;;;;;1.10;0.60;;;9.40;99.90;;;;;;4948272;29;20205;-79
2023/01/11 04:39:36;;;;;;;1.55;1.00;;;9.70;99.90;;;;;;4947501;28;20747;-78
2023/01/11 04:42:17;;;;;;;0.80;0.60;;;9.50;99.90;;;;;;4950475;28;20185;-78
2023/01/11 04:44:49;;;;;;;0.70;0.60;;;9.40;99.90;;;;;;4948960;28;20846;-78
2023/01/11 04:47:16;;;;;;;0.65;0.50;;;9.50;99.90;;;;;;4949881;29;20219;-78
2023/01/11 04:49:42;;;;;;;3.85;1.00;;;9.70;99.90;;;;;;4950899;29;20197;-78
2023/01/11 04:52:10;;;;;;;1.03;0.70;;;9.60;99.90;;;;;;4950350;29;20189;-78
2023/01/11 04:54:36;;;;;;;0.70;0.60;;;9.50;99.90;;;;;;4948531;28;20492;-78
2023/01/11 04:57:01;;;;;;;1.43;0.73;;;9.10;99.90;;;;;;4949734;29;20177;-78
2023/01/11 04:59:27;;;;;;;0.80;0.60;;;9.40;99.90;;;;;;4931758;29;20230;-78
2023/01/11 05:01:52;;;;;;;0.80;0.60;;;9.50;99.90;;;;;;4932844;29;20190;-78
2023/01/11 05:04:18;;;;;;;1.83;1.37;;;9.90;99.90;;;;;;4950341;29;20276;-78
2023/01/11 05:06:44;;;;;;;0.60;0.50;;;9.80;99.90;;;;;;4947157;29;20533;-78
2023/01/11 05:09:15;;;;;;;2.23;0.70;;;9.50;99.90;;;;;;4949107;28;20197;-78
2023/01/11 05:11:41;;;;;;;0.60;0.50;;;9.20;99.90;;;;;;4932155;29;21304;-78
2023/01/11 05:14:07;;;;;;;2.27;0.87;;;9.60;99.90;;;;;;4946654;28;20217;-78
2023/01/11 05:16:32;;;;;;;0.70;0.65;;;9.70;99.90;;;;;;4948640;29;20831;-77
2023/01/11 05:19:02;;;;;;;1.10;1.00;;;9.50;99.90;;;;;;4947660;28;20182;-78
2023/01/11 05:21:33;;;;;;;3.85;0.60;;;9.70;99.90;;;;;;4946338;28;20594;-78
2023/01/11 05:24:01;;;;;;;0.90;0.80;;;9.10;99.90;;;;;;4949324;29;20744;-78
2023/01/11 05:26:30;;;;;;;1.13;0.70;;;9.00;99.90;;;;;;4950493;29;20240;-78
2023/01/11 05:28:58;;;;;;;1.00;0.80;;;9.60;99.90;;;;;;4947542;29;20181;-78
2023/01/11 05:31:24;;;;;;;0.82;0.75;;;9.80;99.90;;;;;;4948719;29;20261;-78
2023/01/11 05:33:50;;;;;;;3.97;1.20;;;10.00;99.90;;;;;;4932940;29;20213;-78
2023/01/11 05:36:18;;;;;;;1.80;0.70;;;9.60;99.90;;;;;;4950070;29;20830;-77
2023/01/11 05:38:48;;;;;;;0.82;0.70;;;9.50;99.90;;;;;;4947519;28;20456;-78
2023/01/11 05:41:15;;;;;;;1.83;0.70;;;9.60;99.90;;;;;;4951420;28;20685;-79
2023/01/11 05:46:28;;;;;;;0.70;0.50;;;9.20;99.90;;;;;;4951283;28;20216;-78
2023/01/11 05:48:54;;;;;;;2.87;0.70;;;9.00;99.90;;;;;;4951032;28;20564;-78
2023/01/11 05:51:20;;;;;;;0.70;0.60;;;9.70;99.90;;;;;;4948510;28;20193;-78
2023/01/11 05:53:46;;;;;;;1.42;0.80;;;9.70;99.90;;;;;;4949456;29;20723;-78
2023/01/11 05:56:11;;;;;;;0.70;0.60;;;9.60;99.90;;;;;;4931516;29;20189;-78
2023/01/11 05:58:37;;;;;;;1.10;0.60;;;9.90;99.90;;;;;;4930366;29;20196;-77
2023/01/11 06:01:03;;;;;;;2.60;0.97;;;9.90;99.90;;;;;;4944084;29;20229;-78
2023/01/11 06:03:28;;;;;;;0.60;0.50;;;10.00;99.90;;;;;;4950851;29;20681;-77
2023/01/11 06:05:54;;;;;;;0.60;0.50;;;9.60;99.90;;;;;;4952607;29;20195;-78
2023/01/11 06:08:20;;;;;;;0.97;0.90;;;9.60;99.90;;;;;;4951382;29;20280;-78
2023/01/11 06:10:55;;;;;;;1.43;0.70;;;9.70;99.90;;;;;;4949992;29;20197;-77
2023/01/11 06:13:25;;;;;;;0.80;0.60;;;9.70;99.90;;;;;;4949047;29;20232;-79
2023/01/11 06:15:51;;;;;;;2.05;0.65;;;9.50;99.90;;;;;;4943130;28;20273;-78
2023/01/11 06:18:17;;;;;;;0.70;0.65;;;10.10;99.90;;;;;;4949822;29;20654;-77
2023/01/11 06:20:42;;;;;;;1.07;0.60;;;9.60;99.90;;;;;;4949617;29;20228;-78
2023/01/11 06:23:08;;;;;;;1.43;0.80;;;9.70;99.90;;;;;;4949639;29;20300;-78
2023/01/11 06:25:36;;;;;;;1.27;0.70;;;10.00;99.90;;;;;;4949433;28;20197;-79
2023/01/11 06:28:05;;;;;;;1.00;0.70;;;9.50;99.90;;;;;;4951709;29;20181;-79
2023/01/11 06:30:30;;;;;;;4.13;2.20;;;9.40;99.90;;;;;;4951177;28;20189;-78
2023/01/11 06:33:04;;;;;;;0.80;0.70;;;9.80;99.90;;;;;;4950978;28;20213;-78
2023/01/11 06:35:36;;;;;;;0.80;0.80;;;9.70;99.90;;;;;;4950645;28;20520;-78
2023/01/11 06:38:01;;;;;;;1.20;0.93;;;9.80;99.90;;;;;;4933374;29;20190;-79
2023/01/11 06:40:28;;;;;;;0.70;0.50;;;9.70;99.90;;;;;;4933216;29;20613;-79
2023/01/11 06:42:53;;;;;;;0.75;0.73;;;9.90;99.90;;;;;;4933530;29;20657;-78
2023/01/11 06:45:19;;;;;;;1.30;0.70;;;9.30;99.90;;;;;;4950196;28;20221;-78
2023/01/11 06:47:44;;;;;;;0.90;0.70;;;9.30;99.90;;;;;;4949350;29;20239;-75
2023/01/11 06:50:10;;;;;;;0.73;0.60;;;9.80;99.90;;;;;;4946158;28;20273;-75
2023/01/11 06:52:35;;;;;;;1.40;1.10;;;9.70;99.90;;;;;;4946718;29;20232;-75
2023/01/11 06:55:01;;;;;;;1.10;1.00;;;9.80;99.90;;;;;;4930637;29;20246;-77
2023/01/11 06:57:28;;;;;;;1.43;0.80;;;10.00;99.90;;;;;;4948985;29;20535;-77
2023/01/11 06:59:53;;;;;;;1.42;0.70;;;9.90;99.90;;;;;;4945431;28;20458;-76
2023/01/11 07:02:19;;;;;;;1.63;0.90;;;9.90;99.90;;;;;;4947800;29;20248;-76
2023/01/11 07:04:44;;;;;;;0.70;0.60;;;10.00;99.90;;;;;;4948032;29;20244;-76
2023/01/11 07:07:10;;;;;;;0.70;0.70;;;10.10;99.90;;;;;;4949110;29;20193;-77
2023/01/11 07:09:35;;;;;;;0.93;0.83;;;10.30;99.90;;;;;;4942764;28;20225;-78
2023/01/11 07:12:01;;;;;;;0.90;0.70;;;10.10;99.90;;;;;;4944756;29;20264;-78
2023/01/11 07:14:26;;;;;;;1.20;0.93;;;10.40;99.90;;;;;;4923350;29;20245;-79
2023/01/11 07:16:52;;;;;;;1.10;0.80;;;10.20;99.90;;;;;;4948393;29;20217;-80
2023/01/11 07:19:17;;;;;;;1.67;0.80;;;10.40;99.90;;;;;;4945142;29;20196;-83
2023/01/11 07:21:43;;;;;;;0.80;0.70;;;10.40;99.90;;;;;;4932719;29;20228;-80
2023/01/11 07:24:09;;;;;;;1.23;1.13;;;10.10;99.90;;;;;;4950903;29;20212;-80
2023/01/11 07:26:40;;;;;;;1.10;0.80;;;10.10;99.90;;;;;;4933225;29;20194;-78
2023/01/11 07:29:08;;;;;;;0.60;0.60;;;10.00;99.90;;;;;;4931750;29;20289;-77
2023/01/11 07:31:34;;;;;;;0.75;0.60;;;10.00;99.90;;;;;;4949929;29;20259;-81
2023/01/11 07:33:59;;;;;;;1.50;0.70;;;10.00;99.90;;;;;;4931542;29;20205;-81
2023/01/11 07:36:25;;;;;;;0.80;0.80;;;10.20;99.90;;;;;;4933035;29;20277;-80
2023/01/11 07:38:50;;;;;;;0.80;0.70;;;10.20;99.90;;;;;;4929975;29;20178;-80
2023/01/11 07:44:00;;;;;;;2.25;0.73;;;10.40;99.90;;;;;;4945018;28;20303;-81
2023/01/11 07:46:26;;;;;;;1.00;0.73;;;9.90;99.90;;;;;;4930682;29;20296;-80
2023/01/11 07:48:51;;;;;;;0.80;0.70;;;10.20;99.90;;;;;;4932857;29;20877;-81
2023/01/11 07:51:19;;;;;;;0.90;0.70;;;10.40;99.90;;;;;;4930904;29;20193;-79
2023/01/11 07:53:45;;;;;;;0.70;0.60;;;11.00;99.90;;;;;;4926242;29;20586;-77
2023/01/11 07:56:12;;;;;;;0.90;0.70;;;10.50;99.90;;;;;;4945995;29;20191;-77
2023/01/11 07:58:37;;;;;;;2.55;0.70;;;11.10;99.90;;;;;;4931931;29;20236;-77
2023/01/11 08:01:03;;;;;;;0.93;0.80;;;10.80;99.90;;;;;;4927710;29;20186;-78
2023/01/11 08:03:29;;;;;;;1.48;0.85;;;10.70;99.90;;;;;;4947692;29;20674;-78
2023/01/11 08:05:54;;;;;;;1.10;0.67;;;10.90;99.90;;;;;;4948488;29;20191;-77
2023/01/11 08:08:20;;;;;;;1.50;0.90;;;10.80;99.90;;;;;;4930844;29;20202;-79
2023/01/11 08:10:46;;;;;;;1.90;1.30;;;10.90;99.90;;;;;;4946767;28;20204;-78
2023/01/11 08:15:57;;;;;;;2.25;0.80;;;11.00;99.90;;;;;;4948302;28;20198;-78
2023/01/11 08:18:23;;;;;;;0.82;0.70;;;11.20;99.90;;;;;;4932137;29;20187;-79
2023/01/11 08:20:51;;;;;;;0.73;0.70;;;10.90;99.90;;;;;;4946132;29;20213;-76
2023/01/11 08:23:17;;;;;;;1.38;0.60;;;11.30;99.90;;;;;;4930003;29;20763;-75
2023/01/11 08:25:43;;;;;;;0.70;0.63;;;11.30;99.90;;;;;;4948697;29;20330;-78
2023/01/11 08:28:10;;;;;;;1.53;1.17;;;11.30;99.90;;;;;;4948259;29;20253;-78
2023/01/11 08:30:36;;;;;;;1.98;0.60;;;11.40;99.90;;;;;;4943229;28;20295;-79
2023/01/11 08:33:03;;;;;;;0.70;0.60;;;11.80;99.90;;;;;;4930185;29;20219;-78
2023/01/11 08:35:30;;;;;;;0.70;0.63;;;11.40;99.90;;;;;;4930780;29;20217;-79
2023/01/11 08:37:55;;;;;;;0.80;0.60;;;11.30;99.90;;;;;;4948948;29;20202;-78
2023/01/11 08:40:21;;;;;;;0.97;0.70;;;11.70;99.90;;;;;;4930397;28;20185;-79
2023/01/11 08:42:47;;;;;;;0.70;0.60;;;12.00;99.90;;;;;;4930015;29;20228;-78
2023/01/11 08:45:12;;;;;;;0.70;0.60;;;11.60;99.90;;;;;;4930138;29;20680;-79
2023/01/11 08:47:38;;;;;;;1.47;0.80;;;11.40;99.90;;;;;;4947453;29;20805;-79
2023/01/11 08:50:04;;;;;;;0.93;0.80;;;11.40;99.90;;;;;;4931069;29;20647;-79
2023/01/11 08:52:30;;;;;;;1.10;0.70;;;11.70;99.90;;;;;;4947706;28;20196;-78
2023/01/11 08:54:55;;;;;;;1.43;0.70;;;11.60;99.90;;;;;;4948014;29;20216;-79
2023/01/11 08:57:21;;;;;;;1.10;0.60;;;11.60;99.90;;;;;;4944824;29;20189;-79
2023/01/11 08:59:46;;;;;;;1.00;0.77;;;11.60;99.90;;;;;;4947096;28;20556;-79
2023/01/11 09:02:12;;;;;;;1.10;0.80;;;11.60;99.90;;;;;;4930329;29;20194;-79
2023/01/11 09:04:37;;;;;;;0.80;0.70;;;12.10;99.90;;;;;;4930832;29;20215;-77
2023/01/11 09:07:03;;;;;;;1.17;0.70;;;11.70;99.90;;;;;;4942550;29;20260;-79
2023/01/11 09:09:29;;;;;;;1.00;0.90;;;12.20;99.90;;;;;;4946002;28;20200;-79
2023/01/11 09:11:59;;;;;;;0.80;0.70;;;11.60;99.90;;;;;;4931436;28;20232;-78
2023/01/11 09:14:26;;;;;;;1.52;1.30;;;12.10;99.90;;;;;;4948071;28;20216;-78
2023/01/11 09:16:53;;;;;;;1.25;0.80;;;12.20;99.90;;;;;;4933402;29;20279;-76
2023/01/11 09:19:19;;;;;;;0.80;0.70;;;12.40;99.90;;;;;;4950882;29;20185;-77
2023/01/11 09:21:47;;;;;;;0.73;0.55;;;12.10;99.90;;;;;;4933448;29;20284;-79
2023/01/11 09:24:13;;;;;;;2.42;0.90;;;12.00;99.90;;;;;;4933771;29;20299;-79
2023/01/11 09:26:40;;;;;;;1.03;0.70;;;12.80;99.90;;;;;;4932715;29;20296;-79
2023/01/11 09:29:06;;;;;;;2.25;1.27;;;12.20;99.90;;;;;;4933002;29;20456;-78
2023/01/11 09:31:31;;;;;;;1.63;1.40;;;12.50;99.90;;;;;;4933444;29;20200;-78
2023/01/11 09:33:57;;;;;;;1.03;0.77;;;12.70;99.90;;;;;;4931599;29;20224;-75
2023/01/11 09:36:25;;;;;;;2.00;1.00;;;12.20;99.90;;;;;;4951881;28;20189;-75
2023/01/11 09:38:51;;;;;;;2.55;1.98;;;12.30;99.90;;;;;;4952578;29;20911;-75
2023/01/11 09:41:45;;;;;;;1.10;1.00;;;12.60;99.90;;;;;;4953465;29;20650;-80
2023/01/11 09:44:17;;;;;;;1.20;0.95;;;12.30;99.90;;;;;;4946794;28;20208;-80
2023/01/11 09:46:47;;;;;;;1.35;1.00;;;12.60;99.90;;;;;;4930835;29;20200;-79
2023/01/11 09:49:23;;;;;;;2.30;1.40;;;12.70;99.90;;;;;;4950632;29;20208;-79
2023/01/11 09:51:50;;;;;;;2.22;0.93;;;12.30;99.90;;;;;;4947480;29;20177;-79
2023/01/11 09:54:25;;;;;;;1.35;0.80;;;12.10;99.90;;;;;;4948121;28;20689;-77
2023/01/11 09:57:17;;;;;;;2.38;1.08;;;12.20;99.90;;;;;;4949691;29;20420;-77
2023/01/11 09:59:55;;;;;;;1.10;0.90;;;12.70;99.90;;;;;;4940162;28;20199;-79
2023/01/11 10:02:26;;;;;;;0.80;0.70;;;12.30;99.90;;;;;;4948752;29;20195;-77
2023/01/11 10:05:08;;;;;;;0.70;0.70;;;12.20;99.90;;;;;;4949031;28;20756;-78
2023/01/11 10:07:59;;;;;;;2.42;1.75;;;12.20;99.90;;;;;;4948517;29;20280;-77
2023/01/11 10:10:47;;;;;;;0.95;0.70;;;12.40;99.90;;;;;;4947276;29;20189;-74
2023/01/11 10:13:37;;;;;;;1.70;0.95;;;12.30;99.90;;;;;;4945761;28;20235;-76
2023/01/11 10:16:19;;;;;;;2.25;0.90;;;12.30;99.90;;;;;;4947661;28;20950;-74
2023/01/11 10:19:17;;;;;;;1.80;1.20;;;12.30;99.90;;;;;;4952344;29;20181;-75
2023/01/11 10:21:57;;;;;;;1.88;1.10;;;11.80;99.90;;;;;;4950231;29;20201;-74
2023/01/11 10:24:28;;;;;;;0.90;0.80;;;12.20;99.90;;;;;;4950143;28;20212;-74
2023/01/11 10:26:57;;;;;;;1.40;1.30;;;12.30;99.90;;;;;;4951617;29;20245;-74
2023/01/11 10:32:39;;;;;;;2.70;0.90;;;12.40;99.90;;;;;;4951371;29;20195;-73
2023/01/11 10:35:28;;;;;;;1.73;0.85;;;12.50;99.90;;;;;;4951385;29;20200;-75
2023/01/11 10:41:02;;;;;;;1.80;0.90;;;12.50;99.90;;;;;;4910172;29;20200;-75
2023/01/11 10:43:32;;;;;;;2.53;1.30;;;12.40;99.90;;;;;;4949379;29;20803;-74
2023/01/11 10:46:06;;;;;;;1.45;0.82;;;12.30;99.90;;;;;;4948813;28;20193;-74
2023/01/11 10:48:36;;;;;;;3.15;0.98;;;12.40;99.90;;;;;;4951487;29;20192;-74
2023/01/11 10:51:22;;;;;;;1.67;1.00;;;12.80;99.90;;;;;;4951227;29;20624;-74
2023/01/11 10:54:03;;;;;;;2.63;1.35;;;12.30;99.90;;;;;;4950202;29;20223;-74
2023/01/11 10:57:07;;;;;;;1.20;0.90;;;12.40;99.90;;;;;;4949696;29;20189;-74
2023/01/11 10:59:52;;;;;;;1.48;1.38;;;12.40;99.90;;;;;;4945250;28;20284;-74
2023/01/11 11:02:39;;;;;;;1.20;0.90;;;12.60;99.90;;;;;;4950304;29;20652;-74
2023/01/11 11:05:23;;;;;;;1.30;1.10;;;12.40;99.90;;;;;;4946673;29;20185;-74
2023/01/11 11:08:10;;;;;;;2.25;1.00;;;12.50;99.90;;;;;;4948832;29;20184;-75
2023/01/11 11:10:55;;;;;;;1.25;1.00;;;12.50;99.90;;;;;;4950201;29;20189;-74
2023/01/11 11:14:11;;;;;;;1.38;0.80;;;12.50;99.90;;;;;;4944411;29;20217;-74
2023/01/11 11:17:11;;;;;;;0.90;0.80;;;12.50;99.90;;;;;;4872503;29;20225;-75
2023/01/11 11:19:37;;;;;;;3.85;1.35;;;12.50;99.90;;;;;;4851478;29;20690;-74
2023/01/11 11:22:02;;;;;;;1.30;1.03;;;12.20;99.90;;;;;;4924087;29;20201;-75
2023/01/11 11:24:39;;;;;;;1.00;0.87;;;12.30;99.90;;;;;;4949220;29;20225;-75
2023/01/11 11:27:26;;;;;;;1.17;1.08;;;13.10;99.90;;;;;;4950363;29;20211;-75
2023/01/11 11:29:54;;;;;;;1.27;1.05;;;12.40;99.90;;;;;;4946676;28;20207;-74
2023/01/11 11:32:26;;;;;;;3.72;1.30;;;12.50;99.90;;;;;;4950595;29;20197;-74
2023/01/11 11:34:52;;;;;;;1.60;1.20;;;12.80;99.90;;;;;;4949633;29;20216;-74
2023/01/11 11:37:25;;;;;;;2.25;1.80;;;13.10;99.90;;;;;;4947833;28;20208;-74
2023/01/11 11:39:51;;;;;;;1.55;1.10;;;12.70;99.90;;;;;;4932988;29;20208;-75
2023/01/11 11:42:20;;;;;;;1.35;0.90;;;12.80;99.90;;;;;;4950935;29;20189;-74
2023/01/11 11:45:12;;;;;;;0.82;0.82;;;12.80;99.90;;;;;;4949006;28;20249;-74
2023/01/11 11:47:38;;;;;;;1.00;0.90;;;12.80;99.90;;;;;;4946004;28;20232;-76
2023/01/11 11:50:22;;;;;;;2.33;1.50;;;13.00;99.90;;;;;;4947019;29;20220;-75
2023/01/11 11:52:53;;;;;;;2.58;1.25;;;12.80;99.90;;;;;;4951095;28;20275;-76
2023/01/11 11:55:27;;;;;;;1.15;1.00;;;12.80;99.90;;;;;;4945538;28;20672;-75
2023/01/11 11:57:54;;;;;;;0.90;0.65;;;12.80;99.90;;;;;;4947445;28;20267;-78
2023/01/11 12:00:25;;;;;;;1.13;0.98;;;12.90;99.90;;;;;;4944329;28;20599;-78
2023/01/11 12:03:01;;;;;;;0.80;0.80;;;12.90;99.90;;;;;;4948422;29;20188;-77
2023/01/11 12:05:26;;;;;;;0.73;0.73;;;13.00;99.90;;;;;;4945903;29;20194;-78
2023/01/11 12:07:53;;;;;;;0.80;0.70;;;12.70;99.90;;;;;;4948719;29;20185;-77
2023/01/11 12:10:22;;;;;;;0.70;0.60;;;13.30;99.90;;;;;;4948360;29;20275;-78
2023/01/11 12:13:24;;;;;;;1.00;0.82;;;12.80;99.90;;;;;;4944888;28;20177;-77
2023/01/11 12:15:56;;;;;;;0.77;0.65;;;13.30;99.90;;;;;;4944552;28;20660;-77
2023/01/11 12:18:26;;;;;;;1.00;0.90;;;12.90;99.90;;;;;;4943630;28;20214;-77
2023/01/11 12:20:51;;;;;;;1.02;0.90;;;13.20;99.90;;;;;;4947531;28;20185;-77
2023/01/11 12:23:25;;;;;;;1.23;0.90;;;13.10;99.90;;;;;;4950483;29;20220;-78
2023/01/11 12:25:59;;;;;;;1.20;1.10;;;13.30;99.90;;;;;;4952502;29;20460;-78
2023/01/11 12:28:55;;;;;;;1.40;0.80;;;13.20;99.90;;;;;;4949598;28;20632;-78
2023/01/11 12:31:35;;;;;;;1.33;0.93;;;12.80;99.90;;;;;;4926860;29;20259;-79
2023/01/11 12:34:25;;;;;;;2.28;1.20;;;12.60;99.90;;;;;;4947952;28;20216;-78
2023/01/11 12:37:29;;;;;;;1.83;0.90;;;12.80;99.90;;;;;;4944294;28;20195;-78
2023/01/11 12:40:01;;;;;;;3.05;1.40;;;12.70;99.90;;;;;;4943623;28;20177;-79
2023/01/11 12:42:50;;;;;;;1.17;1.00;;;13.00;99.90;;;;;;4946049;28;20247;-80
2023/01/11 12:45:29;;;;;;;2.63;1.50;;;13.30;99.90;;;;;;4946830;28;20197;-78
2023/01/11 12:47:57;;;;;;;1.15;0.80;;;13.20;99.90;;;;;;4950369;28;20192;-78
2023/01/11 12:50:28;;;;;;;1.60;0.95;;;13.00;99.90;;;;;;4954720;28;20184;-79
2023/01/11 12:53:05;;;;;;;1.23;0.80;;;13.10;99.90;;;;;;4949820;28;20629;-78
2023/01/11 12:55:43;;;;;;;0.93;0.80;;;13.00;99.90;;;;;;4951836;28;20749;-78
2023/01/11 12:58:24;;;;;;;2.17;0.90;;;12.90;99.90;;;;;;4952511;28;20181;-77
2023/01/11 13:01:15;;;;;;;2.95;1.10;;;13.20;99.90;;;;;;4946660;28;20823;-77
2023/01/11 13:03:53;;;;;;;1.55;1.25;;;13.40;99.90;;;;;;4950765;28;20201;-77
2023/01/11 13:06:35;;;;;;;2.45;0.88;;;13.00;99.90;;;;;;4948940;28;20268;-78
2023/01/11 13:09:03;;;;;;;1.23;1.00;;;12.70;99.90;;;;;;4948952;28;20205;-78
2023/01/11 13:12:03;;;;;;;1.70;1.35;;;13.00;99.90;;;;;;4953181;29;20196;-77
2023/01/11 13:14:59;;;;;;;1.58;1.48;;;12.70;99.90;;;;;;4936309;28;20273;-78
2023/01/11 13:17:57;;;;;;;2.85;1.30;;;12.40;99.90;;;;;;4950343;28;20216;-75
2023/01/11 13:20:57;;;;;;;2.00;1.55;;;12.60;99.90;;;;;;4951791;28;20283;-78
2023/01/11 13:23:42;;;;;;;1.77;1.45;;;12.60;99.90;;;;;;4949975;28;20288;-77
2023/01/11 13:26:23;;;;;;;1.20;1.10;;;12.60;99.90;;;;;;4953307;28;20352;-78
2023/01/11 13:29:01;;;;;;;1.27;1.00;;;12.80;99.90;;;;;;4949679;28;20180;-80
2023/01/11 13:31:29;;;;;;;1.20;1.02;;;12.60;99.90;;;;;;4948235;28;20192;-78
2023/01/11 13:34:02;;;;;;;1.60;1.20;;;12.10;99.90;;;;;;4935729;29;20231;-79
2023/01/11 13:36:52;;;;;;;1.30;1.00;;;12.50;99.90;;;;;;4950496;29;20189;-78
2023/01/11 13:39:44;;;;;;;1.55;1.40;;;12.60;99.90;;;;;;4948243;29;20272;-78
2023/01/11 13:42:28;;;;;;;1.73;1.20;;;12.50;99.90;;;;;;4952082;29;20177;-77
2023/01/11 13:45:14;;;;;;;1.73;1.10;;;12.30;99.90;;;;;;4947040;28;20212;-76
2023/01/11 13:47:49;;;;;;;4.80;1.75;;;12.50;99.90;;;;;;4949643;29;20291;-78
2023/01/11 13:50:50;;;;;;;4.60;2.65;;;12.60;99.90;;;;;;4946955;29;20192;-77
2023/01/11 13:53:24;;;;;;;2.38;1.85;;;12.50;99.90;;;;;;4950468;29;20943;-77
2023/01/11 13:56:14;;;;;;;1.45;1.35;;;12.70;99.90;;;;;;4931858;29;20260;-77